createdAt,value
2023-04-16T00:02:25.923Z,80.04
2023-04-16T00:05:28.623Z,79.55
2023-04-16T00:08:31.478Z,78.87
2023-04-16T00:11:33.987Z,78.58
2023-04-16T00:14:36.621Z,78.64
2023-04-16T00:17:41.760Z,78.81
2023-04-16T00:20:44.550Z,78.90
2023-04-16T00:23:47.203Z,79.27
2023-04-16T00:26:50.793Z,79.79
2023-04-16T00:29:53.767Z,79.66
2023-04-16T00:32:56.857Z,79.77
2023-04-16T00:35:59.587Z,78.69
2023-04-16T00:39:02.166Z,79.24
2023-04-16T00:42:05.841Z,79.96
2023-04-16T00:45:08.772Z,80.14
2023-04-16T00:48:11.166Z,80.78
2023-04-16T00:51:13.624Z,81.54
2023-04-16T00:54:16.346Z,81.96
2023-04-16T00:57:21.123Z,82.87
2023-04-16T01:00:23.988Z,82.71
2023-04-16T01:03:39.783Z,82.37
2023-04-16T01:06:42.545Z,81.67
2023-04-16T01:09:44.952Z,81.60
2023-04-16T01:12:47.365Z,80.86
2023-04-16T01:15:49.884Z,81.64
2023-04-16T01:18:52.608Z,82.56
2023-04-16T01:21:55.379Z,82.29
2023-04-16T01:24:58.483Z,81.92
2023-04-16T01:28:01.554Z,81.96
2023-04-16T01:31:05.030Z,81.94
2023-04-16T01:34:30.607Z,81.46
2023-04-16T01:37:34.437Z,81.04
2023-04-16T01:40:38.709Z,79.82
2023-04-16T01:43:42.579Z,79.89
2023-04-16T01:46:45.330Z,80.50
2023-04-16T01:49:48.526Z,81.78
2023-04-16T01:52:51.633Z,81.13
2023-04-16T01:55:54.270Z,82.29
2023-04-16T01:58:57.273Z,81.77
2023-04-16T02:02:04.743Z,80.50
2023-04-16T02:05:08.984Z,80.41
2023-04-16T02:08:11.940Z,79.82
2023-04-16T02:11:14.521Z,79.96
2023-04-16T02:14:17.675Z,79.35
2023-04-16T02:17:20.560Z,79.64
2023-04-16T02:20:26.274Z,79.35
2023-04-16T02:23:34.407Z,79.66
2023-04-16T02:26:37.138Z,79.98
2023-04-16T02:29:44.608Z,80.37
2023-04-16T02:32:51.166Z,79.58
2023-04-16T02:35:55.230Z,79.22
2023-04-16T02:38:58.382Z,79.67
2023-04-16T02:42:02.842Z,79.66
2023-04-16T02:45:07.429Z,81.10
2023-04-16T02:48:10.593Z,81.90
2023-04-16T02:51:13.165Z,81.92
2023-04-16T02:54:15.791Z,82.13
2023-04-16T02:57:18.518Z,82.22
2023-04-16T03:00:21.125Z,82.99
2023-04-16T03:03:24.275Z,82.63
2023-04-16T03:06:27.158Z,82.73
2023-04-16T03:09:30.558Z,83.53
2023-04-16T03:12:33.886Z,82.44
2023-04-16T03:15:37.122Z,82.45
2023-04-16T03:18:39.974Z,82.95
2023-04-16T03:21:43.128Z,81.91
2023-04-16T03:24:45.536Z,81.84
2023-04-16T03:27:48.109Z,81.49
2023-04-16T03:30:52.920Z,82.33
2023-04-16T03:33:56.126Z,81.54
2023-04-16T03:36:58.922Z,81.79
2023-04-16T03:40:01.777Z,81.51
2023-04-16T03:43:04.825Z,82.96
2023-04-16T03:46:07.374Z,82.56
2023-04-16T03:49:10.196Z,83.43
2023-04-16T03:52:13.240Z,83.02
2023-04-16T03:55:16.358Z,83.48
2023-04-16T03:58:19.771Z,83.16
2023-04-16T04:01:23.307Z,83.07
2023-04-16T04:04:27.482Z,82.13
2023-04-16T04:07:30.447Z,83.34
2023-04-16T04:10:33.805Z,83.61
2023-04-16T04:13:37.451Z,83.21
2023-04-16T04:16:40.348Z,83.16
2023-04-16T04:19:54.314Z,83.97
2023-04-16T04:23:04.552Z,82.79
2023-04-16T04:26:07.838Z,83.07
2023-04-16T04:29:11.270Z,82.61
2023-04-16T04:32:14.442Z,82.55
2023-04-16T04:35:17.464Z,82.21
2023-04-16T04:38:22.240Z,82.70
2023-04-16T04:41:27.197Z,82.34
2023-04-16T04:44:30.185Z,81.41
2023-04-16T04:47:33.551Z,81.96
2023-04-16T04:50:37.212Z,82.07
2023-04-16T04:53:40.194Z,82.68
2023-04-16T04:56:45.605Z,82.65
2023-04-16T04:59:49.382Z,82.00
2023-04-16T05:02:52.725Z,82.08
2023-04-16T05:05:56.167Z,82.42
2023-04-16T05:08:58.815Z,82.03
2023-04-16T05:12:01.355Z,82.17
2023-04-16T05:15:05.308Z,81.55
2023-04-16T05:18:07.840Z,81.19
2023-04-16T05:21:10.496Z,81.81
2023-04-16T05:24:14.868Z,81.14
2023-04-16T05:27:17.502Z,80.79
2023-04-16T05:30:20.605Z,81.47
2023-04-16T05:33:23.302Z,81.27
2023-04-16T05:36:25.744Z,82.02
2023-04-16T05:39:28.508Z,81.64
2023-04-16T05:42:31.230Z,80.89
2023-04-16T05:45:39.618Z,80.13
2023-04-16T05:48:42.699Z,79.79
2023-04-16T05:51:45.513Z,80.03
2023-04-16T05:54:48.032Z,80.14
2023-04-16T05:57:51.078Z,79.26
2023-04-16T06:00:53.452Z,79.43
2023-04-16T06:03:56.103Z,80.16
2023-04-16T06:06:58.915Z,79.02
2023-04-16T06:10:01.467Z,79.08
2023-04-16T06:13:04.576Z,79.40
2023-04-16T06:16:07.364Z,78.66
2023-04-16T06:19:10.048Z,78.26
2023-04-16T06:22:12.684Z,77.81
2023-04-16T06:25:18.022Z,76.78
2023-04-16T06:28:21.033Z,75.89
2023-04-16T06:31:24.683Z,76.41
2023-04-16T06:34:28.084Z,76.09
2023-04-16T06:37:30.403Z,76.37
2023-04-16T06:40:37.082Z,75.82
2023-04-16T06:43:39.909Z,75.26
2023-04-16T06:46:42.418Z,73.81
2023-04-16T06:49:44.952Z,73.69
2023-04-16T06:52:47.403Z,73.31
2023-04-16T06:55:49.913Z,72.18
2023-04-16T06:58:52.456Z,71.54
2023-04-16T07:01:54.972Z,70.38
2023-04-16T07:04:57.510Z,68.63
2023-04-16T07:08:00.079Z,69.82
2023-04-16T07:11:02.771Z,67.82
2023-04-16T07:14:05.378Z,68.00
2023-04-16T07:17:07.855Z,66.61
2023-04-16T07:20:10.905Z,67.60
2023-04-16T07:23:13.496Z,67.88
2023-04-16T07:26:16.181Z,68.44
2023-04-16T07:29:18.561Z,68.11
2023-04-16T07:32:22.767Z,68.33
2023-04-16T07:35:25.498Z,66.97
2023-04-16T07:38:28.269Z,68.08
2023-04-16T07:41:31.140Z,66.90
2023-04-16T07:44:33.597Z,65.99
2023-04-16T07:47:36.269Z,65.63
2023-04-16T07:50:39.225Z,65.92
2023-04-16T07:53:43.506Z,64.11
2023-04-16T07:56:46.230Z,63.62
2023-04-16T07:59:48.686Z,63.37
2023-04-16T08:02:51.271Z,60.78
2023-04-16T08:05:53.732Z,62.59
2023-04-16T08:08:56.596Z,61.83
2023-04-16T08:12:00.823Z,60.41
2023-04-16T08:15:12.460Z,60.31
2023-04-16T08:18:15.751Z,59.66
2023-04-16T08:21:18.402Z,59.04
2023-04-16T08:24:21.594Z,57.75
2023-04-16T08:27:23.804Z,57.27
2023-04-16T08:30:26.114Z,56.49
2023-04-16T08:33:28.603Z,56.67
2023-04-16T08:36:31.978Z,56.14
2023-04-16T08:39:35.336Z,57.41
2023-04-16T08:42:45.187Z,58.20
2023-04-16T08:45:47.858Z,56.69
2023-04-16T08:48:50.332Z,56.81
2023-04-16T08:51:54.386Z,55.99
2023-04-16T08:55:15.399Z,55.71
2023-04-16T08:58:22.579Z,55.33
2023-04-16T09:01:25.651Z,56.29
2023-04-16T09:04:28.809Z,56.81
2023-04-16T09:07:31.434Z,57.71
2023-04-16T09:10:36.778Z,56.81
2023-04-16T09:13:39.455Z,57.83
2023-04-16T09:16:42.272Z,60.10
2023-04-16T09:19:45.854Z,60.62
2023-04-16T09:22:48.591Z,60.58
2023-04-16T09:25:51.345Z,60.95
2023-04-16T09:28:53.699Z,60.43
2023-04-16T09:32:04.397Z,59.98
2023-04-16T09:35:07.059Z,61.14
2023-04-16T09:38:09.559Z,61.43
2023-04-16T09:41:11.955Z,59.33
2023-04-16T09:44:14.439Z,59.79
2023-04-16T09:47:17.104Z,59.18
2023-04-16T09:50:19.988Z,57.86
2023-04-16T09:53:29.095Z,57.74
2023-04-16T09:56:31.553Z,54.10
2023-04-16T09:59:36.009Z,51.86
2023-04-16T10:02:42.707Z,52.27
2023-04-16T10:05:45.433Z,51.26
2023-04-16T10:08:50.250Z,49.92
2023-04-16T10:11:52.923Z,48.78
2023-04-16T10:14:55.394Z,48.01
2023-04-16T10:17:58.048Z,45.02
2023-04-16T10:21:00.679Z,45.04
2023-04-16T10:24:03.181Z,43.29
2023-04-16T10:27:05.855Z,44.01
2023-04-16T10:30:09.359Z,43.48
2023-04-16T10:33:11.867Z,41.84
2023-04-16T10:36:16.343Z,41.43
2023-04-16T10:39:23.614Z,39.75
2023-04-16T10:42:26.236Z,39.61
2023-04-16T10:45:32.847Z,39.45
2023-04-16T10:48:46.712Z,39.58
2023-04-16T10:51:58.740Z,40.90
2023-04-16T10:55:01.447Z,37.74
2023-04-16T10:58:06.731Z,36.19
2023-04-16T11:01:16.859Z,34.80
2023-04-16T11:04:19.549Z,33.74
2023-04-16T11:07:32.377Z,34.81
2023-04-16T11:10:39.411Z,34.63
2023-04-16T11:13:48.288Z,35.23
2023-04-16T11:16:50.763Z,36.46
2023-04-16T11:19:53.485Z,36.19
2023-04-16T11:22:57.354Z,37.45
2023-04-16T11:26:00.245Z,36.46
2023-04-16T11:29:04.875Z,37.30
2023-04-16T11:32:07.582Z,40.80
2023-04-16T11:35:14.712Z,38.26
2023-04-16T11:38:18.519Z,40.37
2023-04-16T11:41:21.974Z,40.21
2023-04-16T11:44:25.573Z,40.43
2023-04-16T11:47:29.903Z,41.05
2023-04-16T11:50:32.934Z,42.45
2023-04-16T11:53:35.502Z,42.66
2023-04-16T11:56:37.915Z,39.28
2023-04-16T12:00:02.099Z,36.36
2023-04-16T12:03:15.229Z,36.66
2023-04-16T12:06:17.591Z,36.78
2023-04-16T12:09:26.167Z,34.86
2023-04-16T12:12:31.166Z,34.77
2023-04-16T12:15:47.765Z,39.06
2023-04-16T12:19:01.710Z,38.04
2023-04-16T12:22:04.117Z,36.57
2023-04-16T12:25:13.978Z,38.38
2023-04-16T12:28:36.826Z,36.20
2023-04-16T12:31:39.386Z,37.01
2023-04-16T12:34:50.716Z,35.87
2023-04-16T12:37:53.195Z,35.33
2023-04-16T12:40:57.381Z,35.26
2023-04-16T12:44:12.051Z,33.48
2023-04-16T12:47:14.504Z,34.49
2023-04-16T12:50:16.999Z,35.31
2023-04-16T12:53:19.458Z,35.29
2023-04-16T12:56:22.106Z,34.44
2023-04-16T12:59:24.728Z,35.11
2023-04-16T13:02:27.414Z,35.75
2023-04-16T13:05:30.236Z,36.20
2023-04-16T13:08:32.664Z,34.66
2023-04-16T13:11:35.184Z,35.12
2023-04-16T13:14:37.961Z,35.50
2023-04-16T13:17:40.612Z,34.07
2023-04-16T13:20:43.914Z,34.91
2023-04-16T13:23:46.447Z,35.44
2023-04-16T13:26:48.996Z,36.17
2023-04-16T13:29:51.726Z,35.72
2023-04-16T13:32:54.145Z,34.89
2023-04-16T13:35:56.617Z,35.10
2023-04-16T13:38:59.592Z,34.55
2023-04-16T13:42:02.814Z,35.09
2023-04-16T13:45:05.782Z,34.81
2023-04-16T13:48:08.354Z,35.72
2023-04-16T13:51:10.862Z,34.09
2023-04-16T13:54:13.513Z,34.25
2023-04-16T13:57:16.177Z,34.15
2023-04-16T14:00:18.740Z,34.33
2023-04-16T14:03:21.881Z,34.42
2023-04-16T14:06:24.459Z,36.20
2023-04-16T14:09:27.383Z,33.69
2023-04-16T14:12:30.048Z,34.91
2023-04-16T14:15:32.401Z,34.96
2023-04-16T14:18:35.868Z,35.75
2023-04-16T14:21:38.516Z,36.19
2023-04-16T14:24:41.167Z,34.99
2023-04-16T14:27:43.836Z,34.64
2023-04-16T14:30:46.460Z,33.82
2023-04-16T14:33:48.852Z,31.47
2023-04-16T14:36:52.679Z,29.99
2023-04-16T14:39:55.375Z,29.34
2023-04-16T14:42:57.888Z,28.55
2023-04-16T14:46:00.444Z,27.79
2023-04-16T14:49:02.696Z,26.55
2023-04-16T14:52:05.893Z,27.40
2023-04-16T14:55:08.514Z,26.97
2023-04-16T14:58:11.048Z,25.69
2023-04-16T15:01:14.950Z,25.43
2023-04-16T15:04:17.977Z,24.01
2023-04-16T15:07:21.889Z,24.26
2023-04-16T15:10:24.496Z,25.95
2023-04-16T15:13:33.743Z,27.68
2023-04-16T15:16:36.476Z,28.93
2023-04-16T15:19:39.008Z,27.52
2023-04-16T15:22:41.572Z,26.91
2023-04-16T15:25:44.249Z,27.12
2023-04-16T15:28:46.688Z,26.42
2023-04-16T15:31:49.297Z,26.84
2023-04-16T15:34:51.888Z,27.55
2023-04-16T15:37:55.604Z,27.34
2023-04-16T15:41:00.062Z,28.84
2023-04-16T15:44:02.987Z,30.37
2023-04-16T15:47:08.256Z,30.83
2023-04-16T15:50:10.953Z,30.67
2023-04-16T15:53:13.530Z,31.15
2023-04-16T15:56:16.239Z,30.82
2023-04-16T15:59:18.832Z,32.04
2023-04-16T16:02:21.547Z,32.45
2023-04-16T16:05:24.086Z,33.37
2023-04-16T16:08:26.695Z,34.93
2023-04-16T16:11:29.057Z,36.54
2023-04-16T16:14:31.493Z,37.37
2023-04-16T16:17:33.901Z,37.55
2023-04-16T16:20:36.751Z,37.29
2023-04-16T16:23:39.275Z,39.05
2023-04-16T16:26:41.942Z,38.97
2023-04-16T16:29:44.564Z,39.71
2023-04-16T16:32:47.551Z,40.07
2023-04-16T16:35:50.556Z,40.00
2023-04-16T16:38:53.586Z,41.38
2023-04-16T16:41:57.016Z,40.24
2023-04-16T16:44:59.513Z,40.39
2023-04-16T16:48:04.096Z,40.68
2023-04-16T16:51:09.820Z,41.24
2023-04-16T16:54:12.318Z,42.46
2023-04-16T16:57:15.516Z,42.68
2023-04-16T17:00:20.141Z,43.46
2023-04-16T17:03:22.835Z,43.37
2023-04-16T17:06:25.381Z,44.28
2023-04-16T17:09:27.938Z,43.84
2023-04-16T17:12:30.704Z,44.32
2023-04-16T17:15:33.477Z,44.62
2023-04-16T17:18:36.135Z,44.95
2023-04-16T17:21:38.654Z,45.48
2023-04-16T17:24:41.289Z,44.52
2023-04-16T17:27:43.813Z,45.26
2023-04-16T17:30:50.562Z,45.40
2023-04-16T17:33:53.147Z,45.68
2023-04-16T17:36:55.566Z,45.91
2023-04-16T17:39:58.039Z,45.94
2023-04-16T17:43:00.483Z,46.23
2023-04-16T17:46:02.959Z,46.43
2023-04-16T17:49:05.843Z,46.43
2023-04-16T17:52:08.596Z,46.80
2023-04-16T17:55:11.222Z,47.21
2023-04-16T17:58:13.837Z,46.43
2023-04-16T18:01:16.342Z,46.48
2023-04-16T18:04:19.415Z,46.74
2023-04-16T18:07:22.350Z,46.57
2023-04-16T18:10:25.272Z,46.92
2023-04-16T18:13:28.015Z,47.26
2023-04-16T18:16:30.621Z,48.11
2023-04-16T18:19:33.132Z,48.62
2023-04-16T18:22:35.872Z,48.80
2023-04-16T18:25:40.215Z,49.29
2023-04-16T18:28:42.913Z,49.64
2023-04-16T18:31:45.379Z,50.26
2023-04-16T18:34:47.850Z,51.36
2023-04-16T18:37:50.630Z,51.05
2023-04-16T18:40:53.505Z,51.55
2023-04-16T18:43:56.169Z,51.96
2023-04-16T18:46:58.584Z,51.94
2023-04-16T18:50:01.048Z,52.45
2023-04-16T18:53:03.498Z,52.16
2023-04-16T18:56:06.213Z,52.34
2023-04-16T18:59:08.907Z,53.25
2023-04-16T19:02:11.400Z,54.15
2023-04-16T19:05:14.058Z,54.18
2023-04-16T19:08:16.828Z,55.22
2023-04-16T19:11:19.333Z,53.80
2023-04-16T19:14:21.935Z,54.35
2023-04-16T19:17:24.482Z,54.77
2023-04-16T19:20:27.240Z,54.56
2023-04-16T19:23:29.754Z,55.68
2023-04-16T19:26:32.127Z,56.17
2023-04-16T19:29:34.990Z,55.36
2023-04-16T19:32:37.565Z,56.09
2023-04-16T19:35:42.788Z,55.78
2023-04-16T19:38:45.404Z,56.73
2023-04-16T19:41:48.063Z,56.11
2023-04-16T19:44:50.472Z,56.38
2023-04-16T19:47:52.916Z,56.96
2023-04-16T19:50:55.465Z,56.38
2023-04-16T19:53:58.923Z,56.81
2023-04-16T19:57:01.671Z,57.11
2023-04-16T20:00:07.893Z,56.78
2023-04-16T20:03:10.318Z,57.24
2023-04-16T20:06:12.886Z,56.58
2023-04-16T20:09:15.347Z,56.92
2023-04-16T20:12:19.478Z,56.86
2023-04-16T20:15:22.232Z,56.81
2023-04-16T20:18:27.632Z,56.83
2023-04-16T20:21:31.793Z,56.44
2023-04-16T20:24:34.394Z,56.85
2023-04-16T20:27:36.962Z,57.07
2023-04-16T20:30:40.146Z,55.96
2023-04-16T20:33:42.517Z,56.42
2023-04-16T20:36:45.717Z,55.72
2023-04-16T20:39:50.118Z,55.94
2023-04-16T20:42:52.666Z,56.54
2023-04-16T20:45:55.474Z,55.89
2023-04-16T20:48:57.939Z,55.76
2023-04-16T20:52:02.201Z,55.54
2023-04-16T20:55:04.980Z,55.86
2023-04-16T20:58:07.374Z,55.64
2023-04-16T21:01:09.971Z,55.98
2023-04-16T21:04:12.511Z,56.07
2023-04-16T21:07:15.622Z,55.92
2023-04-16T21:10:20.506Z,55.36
2023-04-16T21:13:23.140Z,54.81
2023-04-16T21:16:25.694Z,55.42
2023-04-16T21:19:28.942Z,55.11
2023-04-16T21:22:31.353Z,55.51
2023-04-16T21:25:33.891Z,55.29
2023-04-16T21:28:36.331Z,55.42
2023-04-16T21:31:39.013Z,55.89
2023-04-16T21:34:41.516Z,55.50
2023-04-16T21:37:44.151Z,55.94
2023-04-16T21:40:50.725Z,55.61
2023-04-16T21:43:53.222Z,56.22
2023-04-16T21:46:58.356Z,56.11
2023-04-16T21:50:00.943Z,56.01
2023-04-16T21:53:04.530Z,56.61
2023-04-16T21:56:07.533Z,56.78
2023-04-16T21:59:09.997Z,56.16
2023-04-16T22:02:12.619Z,56.69
2023-04-16T22:05:15.591Z,56.81
2023-04-16T22:08:24.923Z,57.02
2023-04-16T22:11:27.796Z,57.63
2023-04-16T22:14:31.904Z,57.70
2023-04-16T22:17:34.483Z,57.45
2023-04-16T22:20:39.111Z,58.09
2023-04-16T22:23:41.794Z,57.32
2023-04-16T22:26:44.231Z,58.14
2023-04-16T22:29:46.710Z,58.11
2023-04-16T22:32:49.126Z,57.72
2023-04-16T22:35:51.601Z,58.24
2023-04-16T22:38:56.982Z,57.70
2023-04-16T22:41:59.417Z,57.49
2023-04-16T22:45:01.905Z,57.80
2023-04-16T22:48:04.870Z,58.45
2023-04-16T22:51:10.833Z,58.33
2023-04-16T22:54:14.033Z,58.99
2023-04-16T22:57:21.130Z,58.76
2023-04-16T23:00:24.900Z,57.92
2023-04-16T23:03:27.563Z,57.14
2023-04-16T23:06:31.712Z,57.47
2023-04-16T23:09:34.355Z,57.85
2023-04-16T23:12:39.474Z,57.78
2023-04-16T23:15:41.961Z,56.31
2023-04-16T23:18:44.725Z,56.22
2023-04-16T23:21:47.223Z,56.32
2023-04-16T23:24:50.934Z,56.34
2023-04-16T23:27:53.444Z,56.14
2023-04-16T23:30:56.495Z,56.58
2023-04-16T23:33:59.157Z,56.33
2023-04-16T23:37:01.646Z,56.07
2023-04-16T23:40:05.002Z,56.54
2023-04-16T23:43:07.466Z,56.57
2023-04-16T23:46:10.175Z,56.66
2023-04-16T23:49:12.895Z,57.02
2023-04-16T23:52:15.569Z,56.32
2023-04-16T23:55:18.186Z,56.16
2023-04-16T23:58:20.598Z,56.50
